createdAt,value
2019-03-09T00:03:56.788Z,100470.08
2019-03-09T00:10:02.715Z,100453.87
2019-03-09T00:16:08.464Z,100449.48
2019-03-09T00:22:14.394Z,100438.94
2019-03-09T00:28:25.606Z,100433.20
2019-03-09T00:34:31.382Z,100438.91
2019-03-09T00:40:37.288Z,100440.67
2019-03-09T00:46:43.047Z,100432.83
2019-03-09T00:52:48.850Z,100448.66
2019-03-09T00:58:54.639Z,100408.84
2019-03-09T01:05:00.506Z,100395.71
2019-03-09T01:11:06.272Z,100399.26
2019-03-09T01:17:12.306Z,100390.06
2019-03-09T01:23:18.814Z,100370.41
2019-03-09T01:29:24.846Z,100371.73
2019-03-09T01:35:30.961Z,100352.03
2019-03-09T01:41:36.819Z,100336.72
2019-03-09T01:47:42.775Z,100325.36
2019-03-09T01:53:48.577Z,100320.97
2019-03-09T01:59:54.654Z,100311.34
2019-03-09T02:06:00.403Z,100295.18
2019-03-09T02:12:06.452Z,100300.91
2019-03-09T02:18:12.652Z,100281.20
2019-03-09T02:24:18.639Z,100282.09
2019-03-09T02:30:24.592Z,100272.01
2019-03-09T02:36:30.819Z,100279.47
2019-03-09T02:42:37.152Z,100274.21
2019-03-09T02:48:43.103Z,100288.67
2019-03-09T02:54:49.694Z,100272.03
2019-03-09T03:01:17.624Z,100269.41
2019-03-09T03:07:48.896Z,100267.63
2019-03-09T03:13:54.754Z,100278.15
2019-03-09T03:20:00.657Z,100272.02
2019-03-09T03:26:06.748Z,100280.80
2019-03-09T03:32:12.663Z,100279.45
2019-03-09T03:38:18.424Z,100278.12
2019-03-09T03:44:24.650Z,100281.16
2019-03-09T03:50:30.601Z,100276.33
2019-03-09T03:56:36.476Z,100282.45
2019-03-09T04:02:42.291Z,100289.89
2019-03-09T04:08:48.569Z,100284.61
2019-03-09T04:14:54.606Z,100298.17
2019-03-09T04:21:02.030Z,100308.69
2019-03-09T04:27:07.992Z,100337.12
2019-03-09T04:33:14.438Z,100338.45
2019-03-09T04:39:20.791Z,100363.81
2019-03-09T04:45:27.104Z,100373.88
2019-03-09T04:51:33.486Z,100380.88
2019-03-09T04:57:39.781Z,100376.47
2019-03-09T05:03:46.062Z,100380.84
2019-03-09T05:10:29.192Z,100396.14
2019-03-09T05:16:35.001Z,100392.59
2019-03-09T05:22:40.835Z,100397.86
2019-03-09T05:28:47.214Z,100389.95
2019-03-09T05:34:53.113Z,100429.77
2019-03-09T05:40:58.863Z,100447.77
2019-03-09T05:47:04.800Z,100435.91
2019-03-09T05:53:17.555Z,100446.00
2019-03-09T05:59:23.362Z,100429.38
2019-03-09T06:05:45.154Z,100433.32
2019-03-09T06:11:51.034Z,100436.44
2019-03-09T06:17:56.859Z,100435.98
2019-03-09T06:24:02.609Z,100446.50
2019-03-09T06:30:08.737Z,100450.45
2019-03-09T06:37:12.403Z,100481.97
2019-03-09T06:43:18.301Z,100509.96
2019-03-09T06:49:25.195Z,100509.92
2019-03-09T06:55:31.218Z,100517.80
2019-03-09T07:01:37.424Z,100519.52
2019-03-09T07:07:43.751Z,100514.20
2019-03-09T07:13:53.191Z,100551.92
2019-03-09T07:19:57.703Z,100550.13
2019-03-09T07:26:03.662Z,100536.53
2019-03-09T07:32:09.565Z,100520.27
2019-03-09T07:44:32.542Z,100554.45
2019-03-09T07:50:38.759Z,100559.70
2019-03-09T07:56:44.554Z,100565.83
2019-03-09T08:02:50.448Z,100574.12
2019-03-09T08:08:56.186Z,100581.10
2019-03-09T08:15:03.242Z,100559.59
2019-03-09T08:21:09.101Z,100578.89
2019-03-09T08:27:15.344Z,100567.91
2019-03-09T08:33:21.255Z,100558.66
2019-03-09T08:39:27.355Z,100553.36
2019-03-09T08:45:33.357Z,100556.82
2019-03-09T08:51:39.366Z,100569.05
2019-03-09T08:57:46.178Z,100584.86
2019-03-09T09:03:52.710Z,100609.83
2019-03-09T09:09:58.611Z,100596.58
2019-03-09T09:16:04.383Z,100602.22
2019-03-09T09:22:10.671Z,100584.14
2019-03-09T09:28:16.642Z,100581.84
2019-03-09T09:34:23.173Z,100581.83
2019-03-09T09:40:29.242Z,100588.34
2019-03-09T09:46:35.656Z,100602.30
2019-03-09T09:52:41.837Z,100607.06
2019-03-09T09:58:47.569Z,100588.94
2019-03-09T10:04:53.487Z,100583.57
2019-03-09T10:10:59.814Z,100570.83
2019-03-09T10:17:05.639Z,100553.69
2019-03-09T10:23:11.418Z,100569.11
2019-03-09T10:29:17.226Z,100580.57
2019-03-09T10:35:24.007Z,100578.40
2019-03-09T10:41:30.241Z,100572.20
2019-03-09T10:47:36.421Z,100545.69
2019-03-09T10:53:42.545Z,100529.30
2019-03-09T10:59:48.666Z,100508.02
2019-03-09T11:05:54.935Z,100509.19
2019-03-09T11:12:01.471Z,100485.30
2019-03-09T11:18:07.868Z,100464.88
2019-03-09T11:24:14.045Z,100486.79
2019-03-09T11:30:23.229Z,100507.39
2019-03-09T11:36:29.153Z,100502.88
2019-03-09T11:42:35.025Z,100467.67
2019-03-09T11:48:43.063Z,100477.06
2019-03-09T11:54:49.003Z,100446.48
2019-03-09T12:00:55.089Z,100422.80
2019-03-09T12:07:02.125Z,100392.20
2019-03-09T12:13:08.196Z,100385.17
2019-03-09T12:19:13.994Z,100379.14
2019-03-09T12:25:20.229Z,100377.02
2019-03-09T12:31:26.558Z,100380.38
2019-03-09T12:37:32.304Z,100374.35
2019-03-09T12:43:38.413Z,100331.67
2019-03-09T12:49:44.454Z,100323.27
2019-03-09T12:55:50.533Z,100310.95
2019-03-09T13:01:56.267Z,100286.23
2019-03-09T13:08:02.323Z,100260.45
2019-03-09T13:14:08.342Z,100247.30
2019-03-09T13:20:14.215Z,100253.94
2019-03-09T13:26:20.104Z,100241.17
2019-03-09T13:32:25.912Z,100232.30
2019-03-09T13:38:31.660Z,100224.55
2019-03-09T13:44:37.425Z,100197.19
2019-03-09T13:50:43.275Z,100253.33
2019-03-09T13:56:49.093Z,100273.91
2019-03-09T14:02:55.021Z,100241.32
2019-03-09T14:09:01.126Z,100230.09
2019-03-09T14:15:08.033Z,100196.18
2019-03-09T14:21:14.263Z,100176.00
2019-03-09T14:27:20.096Z,100172.05
2019-03-09T14:33:25.877Z,100159.98
2019-03-09T14:39:31.779Z,100211.80
2019-03-09T14:45:37.541Z,100199.86
2019-03-09T14:51:43.321Z,100235.82
2019-03-09T14:57:49.297Z,100210.22
2019-03-09T15:03:55.064Z,100228.08
2019-03-09T15:10:00.982Z,100208.78
2019-03-09T15:16:06.849Z,100187.78
2019-03-09T15:22:12.822Z,100187.02
2019-03-09T15:28:18.604Z,100198.88
2019-03-09T15:34:24.384Z,100212.09
2019-03-09T15:40:30.151Z,100209.81
2019-03-09T15:46:35.916Z,100229.96
2019-03-09T15:52:41.769Z,100310.27
2019-03-09T15:58:47.551Z,100306.98
2019-03-09T16:04:53.365Z,100319.84
2019-03-09T16:10:59.288Z,100314.73
2019-03-09T16:17:08.481Z,100356.41
2019-03-09T16:23:14.306Z,100480.13
2019-03-09T16:29:20.091Z,100641.03
2019-03-09T16:35:26.418Z,100557.70
2019-03-09T16:41:33.206Z,100531.80
2019-03-09T16:47:39.026Z,100537.97
2019-03-09T16:53:44.832Z,100532.75
2019-03-09T16:59:51.007Z,100564.65
2019-03-09T17:05:57.122Z,100565.97
2019-03-09T17:12:02.957Z,100607.98
2019-03-09T17:18:08.738Z,100636.87
2019-03-09T17:24:14.550Z,100641.72
2019-03-09T17:30:20.351Z,100654.91
2019-03-09T17:36:26.106Z,100679.86
2019-03-09T17:42:31.936Z,100710.52
2019-03-09T17:48:37.724Z,100710.98
2019-03-09T17:54:43.916Z,100728.05
2019-03-09T18:00:49.745Z,100729.38
2019-03-09T18:06:55.523Z,100748.22
2019-03-09T18:13:01.380Z,100761.36
2019-03-09T18:19:07.175Z,100773.20
2019-03-09T18:25:12.932Z,100786.73
2019-03-09T18:31:18.696Z,100807.32
2019-03-09T18:37:24.488Z,100810.86
2019-03-09T18:43:30.288Z,100821.79
2019-03-09T18:49:36.305Z,100835.33
2019-03-09T18:55:42.375Z,100850.23
2019-03-09T19:01:48.160Z,100848.92
2019-03-09T19:07:53.956Z,100861.63
2019-03-09T19:13:59.774Z,100874.31
2019-03-09T19:20:06.286Z,100875.61
2019-03-09T19:26:12.062Z,100882.16
2019-03-09T19:32:17.954Z,100876.03
2019-03-09T19:38:23.785Z,100891.81
2019-03-09T19:44:29.610Z,100889.62
2019-03-09T19:50:36.040Z,100902.27
2019-03-09T19:56:41.967Z,100913.69
2019-03-09T20:02:47.817Z,100908.84
2019-03-09T20:08:53.601Z,100901.84
2019-03-09T20:14:59.393Z,100909.28
2019-03-09T20:21:05.350Z,100913.23
2019-03-09T20:27:11.230Z,100913.29
2019-03-09T20:33:17.125Z,100902.80
2019-03-09T20:39:23.026Z,100919.89
2019-03-09T20:45:28.943Z,100933.48
2019-03-09T20:51:37.363Z,100940.06
2019-03-09T20:57:43.271Z,100934.34
2019-03-09T21:03:49.209Z,100942.67
2019-03-09T21:09:55.172Z,100942.20
2019-03-09T21:16:01.256Z,100936.91
2019-03-09T21:22:07.166Z,100937.75
2019-03-09T21:28:13.006Z,100930.31
2019-03-09T21:34:19.081Z,100925.08
2019-03-09T21:40:25.076Z,100933.41
2019-03-09T21:46:30.858Z,100926.39
2019-03-09T21:52:36.671Z,100931.66
2019-03-09T21:58:42.496Z,100921.16
2019-03-09T22:04:48.272Z,100918.14
2019-03-09T22:10:54.094Z,100924.30
2019-03-09T22:16:59.915Z,100918.64
2019-03-09T22:23:05.686Z,100932.63
2019-03-09T22:29:11.557Z,100941.84
2019-03-09T22:35:17.894Z,100933.97
2019-03-09T22:41:23.673Z,100924.80
2019-03-09T22:47:29.413Z,100928.29
2019-03-09T22:53:35.215Z,100917.82
2019-03-09T22:59:41.004Z,100919.59
2019-03-09T23:05:46.792Z,100927.95
2019-03-09T23:11:52.835Z,100915.27
2019-03-09T23:17:58.959Z,100917.90
2019-03-09T23:24:04.838Z,100909.62
2019-03-09T23:30:16.136Z,100899.14
2019-03-09T23:36:22.188Z,100899.56
2019-03-09T23:42:28.110Z,100906.12
2019-03-09T23:48:34.552Z,100899.96
2019-03-09T23:54:40.809Z,100892.48
